Time;durP1;ratioP1;P1;durP2;ratioP2;P2;SDS_P1;SDS_P2;PMS_P1;PMS_P2;Temp;Humidity;BMP_temperature;BMP_pressure;BME280_temperature;BME280_humidity;BME280_pressure;Samples;Min_cycle;Max_cycle;Signal;HPM_P1;HPM_P2
2023/03/11 00:00:01;;;;;;;4.57;1.33;;;0.60;99.90;;;;;;5114560;28;20412;-63
2023/03/11 00:02:28;;;;;;;2.38;1.30;;;0.70;99.90;;;;;;5112908;28;20048;-64
2023/03/11 00:04:55;;;;;;;4.95;1.60;;;0.60;99.90;;;;;;5111573;28;20293;-64
2023/03/11 00:07:22;;;;;;;9.18;1.63;;;0.60;99.90;;;;;;5113786;28;20042;-65
2023/03/11 00:09:48;;;;;;;4.68;1.83;;;0.60;99.90;;;;;;5114351;28;20725;-65
2023/03/11 00:12:15;;;;;;;6.55;1.40;;;0.60;99.90;;;;;;5114384;28;20050;-64
2023/03/11 00:14:42;;;;;;;2.53;1.30;;;0.60;99.90;;;;;;5113475;28;20120;-63
2023/03/11 00:17:10;;;;;;;4.20;1.30;;;0.60;99.90;;;;;;5114082;28;20048;-64
2023/03/11 00:19:37;;;;;;;5.38;1.92;;;0.60;99.90;;;;;;5113115;28;20051;-65
2023/03/11 00:22:04;;;;;;;6.10;1.13;;;0.70;99.90;;;;;;5113286;28;20109;-64
2023/03/11 00:24:31;;;;;;;3.72;1.60;;;0.60;99.90;;;;;;5114094;28;20381;-64
2023/03/11 00:26:58;;;;;;;3.50;1.20;;;0.60;99.90;;;;;;5113447;28;20036;-64
2023/03/11 00:29:25;;;;;;;4.82;1.15;;;0.60;99.90;;;;;;5113482;28;20472;-63
2023/03/11 00:31:52;;;;;;;4.68;1.20;;;0.60;99.90;;;;;;5110725;28;20043;-64
2023/03/11 00:34:20;;;;;;;7.30;1.25;;;0.60;99.90;;;;;;5113780;28;20046;-64
2023/03/11 00:36:47;;;;;;;3.65;1.35;;;0.60;99.90;;;;;;5111203;28;20449;-64
2023/03/11 00:39:14;;;;;;;3.50;1.40;;;0.80;99.90;;;;;;5112670;28;20427;-64
2023/03/11 00:41:41;;;;;;;4.95;1.45;;;0.60;99.90;;;;;;5113852;28;20039;-64
2023/03/11 00:44:08;;;;;;;4.22;1.55;;;0.60;99.90;;;;;;5112984;28;20052;-64
2023/03/11 00:46:35;;;;;;;1.92;1.13;;;0.60;99.90;;;;;;5113668;28;20407;-63
2023/03/11 00:49:02;;;;;;;7.82;1.40;;;0.60;99.90;;;;;;5113442;28;20047;-64
2023/03/11 00:51:30;;;;;;;3.75;1.17;;;0.60;99.90;;;;;;5111605;28;20112;-64
2023/03/11 00:53:59;;;;;;;2.42;1.10;;;0.60;99.90;;;;;;5113423;28;20113;-64
2023/03/11 00:56:26;;;;;;;3.88;1.42;;;0.50;99.90;;;;;;5113349;28;20063;-63
2023/03/11 00:58:52;;;;;;;4.38;1.52;;;0.50;99.90;;;;;;5112893;28;20043;-64
2023/03/11 01:01:20;;;;;;;7.05;1.67;;;0.50;99.90;;;;;;5112261;28;20103;-64
2023/03/11 01:03:47;;;;;;;6.75;1.10;;;0.50;99.90;;;;;;5112538;28;20051;-64
2023/03/11 01:06:14;;;;;;;3.55;1.40;;;0.50;99.90;;;;;;5113393;28;20051;-64
2023/03/11 01:08:43;;;;;;;4.35;1.20;;;0.50;99.90;;;;;;5113446;28;20461;-64
2023/03/11 01:11:10;;;;;;;4.07;1.10;;;0.50;99.90;;;;;;5110470;28;20047;-64
2023/03/11 01:13:36;;;;;;;3.80;1.25;;;0.50;99.90;;;;;;5113081;28;20055;-64
2023/03/11 01:16:04;;;;;;;1.85;0.85;;;0.50;99.90;;;;;;5110488;28;20048;-64
2023/03/11 01:18:31;;;;;;;3.38;1.15;;;0.50;99.90;;;;;;5111170;28;20093;-63
2023/03/11 01:20:57;;;;;;;3.17;1.10;;;0.50;99.90;;;;;;5110914;28;20043;-63
2023/03/11 01:23:24;;;;;;;3.17;0.90;;;0.50;99.90;;;;;;5113135;28;20051;-63
2023/03/11 01:25:53;;;;;;;5.25;1.20;;;0.50;99.90;;;;;;5110203;28;20050;-63
2023/03/11 01:28:20;;;;;;;4.68;1.00;;;0.60;99.90;;;;;;5111749;28;20407;-63
2023/03/11 01:30:47;;;;;;;4.25;1.10;;;0.50;99.90;;;;;;5111493;28;20055;-64
2023/03/11 01:33:16;;;;;;;4.25;1.00;;;0.50;99.90;;;;;;5112373;28;20047;-63
2023/03/11 01:35:44;;;;;;;3.03;1.10;;;0.50;99.90;;;;;;5112663;28;20044;-63
2023/03/11 01:38:12;;;;;;;2.65;1.17;;;0.50;99.90;;;;;;5110569;28;20507;-63
2023/03/11 01:40:41;;;;;;;7.35;1.25;;;0.50;99.90;;;;;;5110942;28;20450;-64
2023/03/11 01:43:47;;;;;;;6.00;1.20;;;0.50;99.90;;;;;;5112732;28;20044;-64
2023/03/11 01:46:17;;;;;;;3.60;1.20;;;0.50;99.90;;;;;;5110348;28;20488;-64
2023/03/11 01:48:47;;;;;;;7.15;1.58;;;0.50;99.90;;;;;;5112723;28;20453;-63
2023/03/11 01:51:15;;;;;;;3.58;1.00;;;0.50;99.90;;;;;;5112452;28;20047;-64
2023/03/11 01:53:42;;;;;;;2.58;0.88;;;0.50;99.90;;;;;;5110918;28;20081;-63
2023/03/11 01:56:10;;;;;;;7.75;1.95;;;0.50;99.90;;;;;;5112625;28;20052;-64
2023/03/11 01:58:43;;;;;;;4.07;1.13;;;0.40;99.90;;;;;;5112481;28;20047;-64
2023/03/11 02:01:13;;;;;;;3.05;1.10;;;0.40;99.90;;;;;;5112001;28;20044;-64
2023/03/11 02:03:41;;;;;;;6.28;1.60;;;0.40;99.90;;;;;;5112469;28;20043;-64
2023/03/11 02:06:12;;;;;;;3.10;1.25;;;0.40;99.90;;;;;;5112299;28;20097;-64
2023/03/11 02:08:39;;;;;;;4.78;1.10;;;0.30;99.90;;;;;;5111001;28;20142;-63
2023/03/11 02:11:09;;;;;;;3.17;1.15;;;0.30;99.90;;;;;;5112687;28;20431;-63
2023/03/11 02:13:38;;;;;;;3.95;1.17;;;0.30;99.90;;;;;;5112725;28;20105;-64
2023/03/11 02:16:05;;;;;;;2.58;1.05;;;0.20;99.90;;;;;;5110660;28;20434;-64
2023/03/11 02:18:34;;;;;;;3.92;1.17;;;0.20;99.90;;;;;;5112408;28;20499;-63
2023/03/11 02:21:09;;;;;;;4.72;1.08;;;0.10;99.90;;;;;;5110589;28;20452;-64
2023/03/11 02:23:44;;;;;;;4.70;1.17;;;0.10;99.90;;;;;;5111498;28;20108;-63
2023/03/11 02:26:16;;;;;;;4.10;1.08;;;0.10;99.90;;;;;;5110973;28;20541;-63
2023/03/11 02:28:47;;;;;;;5.20;1.38;;;0.00;99.90;;;;;;5110802;28;20060;-64
2023/03/11 02:31:15;;;;;;;7.88;1.08;;;-0.10;99.90;;;;;;5112163;28;20465;-63
2023/03/11 02:33:45;;;;;;;2.67;1.10;;;-0.10;99.90;;;;;;5111261;28;20047;-63
2023/03/11 02:36:33;;;;;;;2.90;1.10;;;-0.20;99.90;;;;;;5111823;28;20044;-63
2023/03/11 02:39:00;;;;;;;3.30;1.00;;;-0.30;99.90;;;;;;5112272;28;20309;-63
2023/03/11 02:41:28;;;;;;;2.20;1.55;;;-0.30;99.90;;;;;;5111064;28;20142;-64
2023/03/11 02:43:58;;;;;;;3.70;1.25;;;-0.40;99.90;;;;;;5111423;28;20047;-64
2023/03/11 02:46:25;;;;;;;3.38;1.00;;;-0.40;99.90;;;;;;5110796;28;20133;-63
2023/03/11 02:48:54;;;;;;;2.53;1.10;;;-0.40;99.90;;;;;;5113119;28;20075;-64
2023/03/11 02:51:20;;;;;;;3.05;1.42;;;-0.40;99.90;;;;;;5114266;28;20100;-63
2023/03/11 02:53:51;;;;;;;2.55;1.20;;;-0.40;99.90;;;;;;5112404;28;20063;-63
2023/03/11 02:56:18;;;;;;;5.90;1.23;;;-0.40;99.90;;;;;;5114089;28;20128;-63
2023/03/11 02:58:45;;;;;;;3.45;1.20;;;-0.40;99.90;;;;;;5114607;28;20055;-63
2023/03/11 03:01:13;;;;;;;3.85;1.40;;;-0.40;99.90;;;;;;5115572;27;20107;-63
2023/03/11 03:03:40;;;;;;;2.17;1.30;;;-0.40;99.90;;;;;;5114935;28;20456;-62
2023/03/11 03:06:07;;;;;;;5.07;1.60;;;-0.40;99.90;;;;;;5114472;28;20403;-62
2023/03/11 03:08:34;;;;;;;2.63;1.13;;;-0.40;99.90;;;;;;5114592;28;20121;-64
2023/03/11 03:11:02;;;;;;;3.42;1.20;;;-0.50;99.90;;;;;;5114758;28;20043;-64
2023/03/11 03:13:29;;;;;;;5.28;2.10;;;-0.60;99.90;;;;;;5115548;28;20096;-63
2023/03/11 03:15:56;;;;;;;4.53;1.15;;;-0.60;99.90;;;;;;5115364;28;20054;-63
2023/03/11 03:18:25;;;;;;;2.53;1.17;;;-0.70;99.90;;;;;;5114628;28;20047;-63
2023/03/11 03:20:52;;;;;;;4.70;1.08;;;-0.90;99.90;;;;;;5114104;28;20051;-63
2023/03/11 03:23:20;;;;;;;3.53;1.08;;;-0.90;99.90;;;;;;5115035;28;20055;-64
2023/03/11 03:25:47;;;;;;;4.88;1.25;;;-1.00;99.90;;;;;;5113693;28;20437;-63
2023/03/11 03:28:14;;;;;;;4.68;1.33;;;-1.10;99.90;;;;;;5115092;28;20054;-63
2023/03/11 03:30:41;;;;;;;2.97;1.00;;;-1.10;99.90;;;;;;5114241;28;20492;-63
2023/03/11 03:33:08;;;;;;;8.40;1.40;;;-1.20;99.90;;;;;;5114474;28;20039;-64
2023/03/11 03:35:41;;;;;;;4.07;1.38;;;-1.30;99.90;;;;;;5114817;28;20047;-63
2023/03/11 03:38:08;;;;;;;5.20;1.23;;;-1.30;99.90;;;;;;5113445;28;20101;-64
2023/03/11 03:40:35;;;;;;;7.22;1.20;;;-1.40;99.90;;;;;;5114586;28;20100;-63
2023/03/11 03:43:02;;;;;;;4.63;1.02;;;-1.40;99.90;;;;;;5113862;28;20537;-63
2023/03/11 03:45:29;;;;;;;5.50;1.33;;;-1.40;99.90;;;;;;5114218;28;20112;-64
2023/03/11 03:47:56;;;;;;;5.68;1.30;;;-1.50;99.90;;;;;;5113386;28;20052;-63
2023/03/11 03:50:24;;;;;;;4.03;1.20;;;-1.50;99.90;;;;;;5114750;28;20101;-64
2023/03/11 03:52:52;;;;;;;3.25;1.00;;;-1.50;99.90;;;;;;5112741;28;20047;-64
2023/03/11 03:55:19;;;;;;;3.15;1.00;;;-1.50;99.90;;;;;;5114546;28;20530;-63
2023/03/11 03:57:46;;;;;;;3.42;1.10;;;-1.50;99.90;;;;;;5114686;28;20108;-63
2023/03/11 04:00:14;;;;;;;4.10;1.25;;;-1.40;99.90;;;;;;5113062;28;20039;-64
2023/03/11 04:02:41;;;;;;;7.32;1.50;;;-1.40;99.90;;;;;;5113379;28;20380;-64
2023/03/11 04:05:09;;;;;;;3.13;1.70;;;-1.50;99.90;;;;;;5114021;28;20055;-63
2023/03/11 04:07:36;;;;;;;3.60;1.10;;;-1.50;99.90;;;;;;5114156;28;20043;-63
2023/03/11 04:10:06;;;;;;;2.75;1.23;;;-1.60;99.90;;;;;;5113099;28;20052;-64
2023/03/11 04:12:33;;;;;;;3.08;1.20;;;-1.60;99.90;;;;;;5114248;28;20096;-64
2023/03/11 04:15:00;;;;;;;5.32;1.52;;;-1.60;99.90;;;;;;5112623;28;20068;-65
2023/03/11 04:17:26;;;;;;;7.63;1.63;;;-1.70;99.90;;;;;;5113917;28;20100;-64
2023/03/11 04:19:53;;;;;;;3.33;1.40;;;-1.80;99.90;;;;;;5112901;28;20053;-63
2023/03/11 04:22:20;;;;;;;2.97;1.23;;;-1.80;99.90;;;;;;5113365;27;20052;-64
2023/03/11 04:24:47;;;;;;;4.60;1.25;;;-1.80;99.90;;;;;;5113875;28;20044;-62
2023/03/11 04:27:16;;;;;;;8.55;2.28;;;-2.00;99.90;;;;;;5113848;28;20055;-63
2023/03/11 04:29:42;;;;;;;4.18;1.35;;;-2.00;99.90;;;;;;5113325;28;20490;-63
2023/03/11 04:32:09;;;;;;;2.88;1.02;;;-2.00;99.90;;;;;;5113685;28;20040;-63
2023/03/11 04:34:36;;;;;;;3.55;1.00;;;-2.10;99.90;;;;;;5112379;28;20128;-64
2023/03/11 04:37:03;;;;;;;2.75;1.20;;;-2.10;99.90;;;;;;5113691;28;20047;-63
2023/03/11 04:39:30;;;;;;;6.78;1.38;;;-1.90;99.90;;;;;;5113853;28;20040;-64
2023/03/11 04:41:57;;;;;;;3.53;1.30;;;-2.20;99.90;;;;;;5112076;28;20052;-63
2023/03/11 04:44:26;;;;;;;4.70;1.20;;;-2.20;99.90;;;;;;5113482;27;20384;-64
2023/03/11 04:46:52;;;;;;;2.05;1.33;;;-2.20;99.90;;;;;;5112766;28;20043;-63
2023/03/11 04:49:19;;;;;;;2.88;1.17;;;-2.30;99.90;;;;;;5112918;27;20044;-64
2023/03/11 04:51:46;;;;;;;5.97;1.48;;;-2.20;99.90;;;;;;5113671;28;20388;-64
2023/03/11 04:54:13;;;;;;;2.65;1.30;;;-2.30;99.90;;;;;;5111933;28;20059;-63
2023/03/11 04:56:40;;;;;;;4.22;1.25;;;-2.30;99.90;;;;;;5113133;28;20044;-64
2023/03/11 04:59:07;;;;;;;4.57;1.88;;;-2.30;99.90;;;;;;5112013;28;20108;-64
2023/03/11 05:01:35;;;;;;;6.53;1.55;;;-2.40;99.90;;;;;;5112374;28;20048;-64
2023/03/11 05:04:02;;;;;;;2.10;1.50;;;-2.40;99.90;;;;;;5112287;28;20047;-63
2023/03/11 05:06:29;;;;;;;3.83;1.23;;;-2.40;99.90;;;;;;5113349;28;20052;-63
2023/03/11 05:08:56;;;;;;;1.90;1.27;;;-2.50;99.90;;;;;;5113045;28;20388;-63
2023/03/11 05:11:23;;;;;;;3.88;1.23;;;-2.50;99.90;;;;;;5111246;28;20051;-64
2023/03/11 05:13:49;;;;;;;4.82;1.45;;;-2.60;99.90;;;;;;5112023;28;20044;-64
2023/03/11 05:16:16;;;;;;;3.38;1.20;;;-2.70;99.90;;;;;;5112856;28;20072;-63
2023/03/11 05:18:45;;;;;;;3.30;1.33;;;-2.70;99.90;;;;;;5112459;28;20470;-63
2023/03/11 05:21:12;;;;;;;2.63;1.05;;;-2.70;99.90;;;;;;5111728;28;20043;-63
2023/03/11 05:23:38;;;;;;;3.25;1.30;;;-2.80;99.90;;;;;;5112981;28;20054;-64
2023/03/11 05:26:06;;;;;;;2.50;1.10;;;-2.80;99.90;;;;;;5112094;28;20040;-63
2023/03/11 05:28:33;;;;;;;2.13;1.08;;;-2.80;99.90;;;;;;5112837;28;20040;-64
2023/03/11 05:31:00;;;;;;;6.35;1.67;;;-2.80;99.90;;;;;;5112135;28;20089;-64
2023/03/11 05:33:31;;;;;;;5.78;1.45;;;-2.90;99.90;;;;;;5111724;28;20051;-64
2023/03/11 05:36:05;;;;;;;4.38;1.45;;;-2.90;99.90;;;;;;5111390;28;20043;-64
2023/03/11 05:38:32;;;;;;;2.47;1.35;;;-3.00;99.90;;;;;;5111052;28;20403;-63
2023/03/11 05:40:59;;;;;;;4.03;1.73;;;-3.00;99.90;;;;;;5112530;28;20052;-64
2023/03/11 05:43:26;;;;;;;6.40;1.50;;;-3.00;99.90;;;;;;5111390;28;20055;-64
2023/03/11 05:45:53;;;;;;;5.40;1.50;;;-3.00;99.90;;;;;;5112023;28;20043;-63
2023/03/11 05:48:20;;;;;;;3.47;1.50;;;-3.10;99.90;;;;;;5112634;28;20074;-63
2023/03/11 05:50:47;;;;;;;4.93;1.40;;;-3.10;99.90;;;;;;5111269;28;20171;-64
2023/03/11 05:53:15;;;;;;;3.55;1.17;;;-3.10;99.90;;;;;;5111243;28;20488;-64
2023/03/11 05:55:42;;;;;;;16.05;2.20;;;-3.10;99.90;;;;;;5112619;28;20050;-64
2023/03/11 05:58:09;;;;;;;4.03;1.40;;;-3.10;99.90;;;;;;5112421;28;20060;-64
2023/03/11 06:00:35;;;;;;;5.95;1.65;;;-3.20;99.90;;;;;;5103377;28;20499;-64
2023/03/11 06:03:02;;;;;;;6.65;1.60;;;-3.10;99.90;;;;;;5110439;28;20047;-63
2023/03/11 06:05:29;;;;;;;3.95;2.30;;;-3.10;99.90;;;;;;5110794;28;20526;-63
2023/03/11 06:07:56;;;;;;;2.75;1.55;;;-3.20;99.90;;;;;;5110762;28;20047;-62
2023/03/11 06:10:24;;;;;;;4.47;1.85;;;-3.10;99.90;;;;;;5110324;28;20119;-62
2023/03/11 06:12:51;;;;;;;5.60;1.70;;;-3.20;99.90;;;;;;5111389;28;20051;-63
2023/03/11 06:15:19;;;;;;;3.35;1.40;;;-3.10;99.90;;;;;;5110821;28;20399;-63
2023/03/11 06:17:45;;;;;;;4.25;1.55;;;-3.10;99.90;;;;;;5109841;28;20735;-64
2023/03/11 06:20:13;;;;;;;4.80;1.40;;;-3.10;99.90;;;;;;5110607;28;20054;-64
2023/03/11 06:22:40;;;;;;;5.90;1.55;;;-3.10;99.90;;;;;;5111493;28;20442;-63
2023/03/11 06:25:07;;;;;;;3.92;1.52;;;-3.10;99.90;;;;;;5112872;28;20491;-64
2023/03/11 06:27:36;;;;;;;3.60;1.63;;;-3.10;99.90;;;;;;5114704;28;20132;-63
2023/03/11 06:30:03;;;;;;;7.05;1.55;;;-3.00;99.90;;;;;;5113382;28;20101;-63
2023/03/11 06:32:30;;;;;;;7.07;1.70;;;-3.00;99.90;;;;;;5113675;28;20056;-63
2023/03/11 06:34:57;;;;;;;5.72;1.50;;;-2.90;99.90;;;;;;5112934;28;20067;-64
2023/03/11 06:37:24;;;;;;;5.22;1.70;;;-2.90;99.90;;;;;;5114551;28;20398;-63
2023/03/11 06:39:52;;;;;;;2.58;1.48;;;-2.90;99.90;;;;;;5114727;28;20051;-64
2023/03/11 06:42:19;;;;;;;5.28;1.98;;;-2.80;99.90;;;;;;5113535;28;20074;-64
2023/03/11 06:44:48;;;;;;;4.10;1.60;;;-2.80;99.90;;;;;;5113894;28;20491;-65
2023/03/11 06:47:15;;;;;;;5.13;1.55;;;-2.70;99.90;;;;;;5114946;28;20051;-63
2023/03/11 06:49:42;;;;;;;8.82;1.95;;;-2.70;99.90;;;;;;5113336;28;20051;-63
2023/03/11 06:52:09;;;;;;;12.27;1.73;;;-2.60;99.90;;;;;;5115043;28;20051;-64
2023/03/11 06:54:36;;;;;;;6.18;1.95;;;-2.50;99.90;;;;;;5113212;28;20457;-64
2023/03/11 06:57:03;;;;;;;3.38;1.58;;;-2.40;99.90;;;;;;5114109;28;20047;-64
2023/03/11 06:59:30;;;;;;;7.53;2.08;;;-2.30;99.90;;;;;;5114567;28;20101;-63
2023/03/11 07:02:00;;;;;;;6.03;1.88;;;-2.20;99.90;;;;;;5114255;28;20511;-64
2023/03/11 07:04:27;;;;;;;11.70;2.53;;;-2.10;99.90;;;;;;5112718;28;20047;-64
2023/03/11 07:06:54;;;;;;;6.65;1.48;;;-2.00;99.90;;;;;;5114293;28;20492;-64
2023/03/11 07:09:23;;;;;;;4.53;1.73;;;-1.90;99.90;;;;;;5114628;28;20043;-63
2023/03/11 07:11:51;;;;;;;6.72;2.05;;;-1.70;99.90;;;;;;5114172;28;20550;-63
2023/03/11 07:14:18;;;;;;;3.60;2.20;;;-1.10;99.90;;;;;;5114245;28;20044;-64
2023/03/11 07:16:46;;;;;;;4.57;1.60;;;-0.30;99.90;;;;;;5111455;28;20491;-64
2023/03/11 07:19:15;;;;;;;4.53;1.70;;;0.50;99.90;;;;;;5112887;28;20051;-65
2023/03/11 07:21:42;;;;;;;5.97;1.75;;;1.10;99.90;;;;;;5111608;28;20055;-64
2023/03/11 07:24:12;;;;;;;5.00;1.83;;;1.70;99.90;;;;;;5113479;27;20044;-65
2023/03/11 07:26:39;;;;;;;3.53;1.60;;;2.70;99.90;;;;;;5112368;28;20105;-64
2023/03/11 07:29:06;;;;;;;3.97;1.50;;;3.70;99.90;;;;;;5112696;28;20047;-63
2023/03/11 07:31:34;;;;;;;4.68;1.50;;;4.70;99.90;;;;;;5113811;28;20054;-63
2023/03/11 07:34:04;;;;;;;8.93;1.80;;;5.70;99.90;;;;;;5113883;28;20040;-63
2023/03/11 07:36:32;;;;;;;2.65;1.58;;;6.70;99.90;;;;;;5112713;28;20063;-63
2023/03/11 07:39:02;;;;;;;5.93;2.03;;;7.30;99.90;;;;;;5113212;28;20047;-63
2023/03/11 07:41:30;;;;;;;4.05;1.75;;;8.00;99.90;;;;;;5112828;28;20051;-63
2023/03/11 07:43:59;;;;;;;5.55;1.70;;;8.60;99.90;;;;;;5111677;28;20047;-63
2023/03/11 07:46:28;;;;;;;3.25;1.10;;;9.00;99.90;;;;;;5112817;28;20105;-63
2023/03/11 07:48:55;;;;;;;4.72;1.60;;;9.20;99.90;;;;;;5112671;28;20047;-63
2023/03/11 07:51:24;;;;;;;4.22;1.75;;;9.60;99.90;;;;;;5113521;28;20043;-63
2023/03/11 07:53:54;;;;;;;6.32;1.48;;;10.10;99.90;;;;;;5112955;28;20051;-63
2023/03/11 07:56:24;;;;;;;3.85;1.17;;;10.30;99.90;;;;;;5111399;28;20096;-63
2023/03/11 07:58:52;;;;;;;3.85;1.35;;;10.10;98.20;;;;;;5112808;28;20108;-63
2023/03/11 08:01:20;;;;;;;4.43;1.50;;;10.50;99.90;;;;;;5113649;28;20383;-64
2023/03/11 08:03:49;;;;;;;2.92;1.17;;;11.00;96.80;;;;;;5112308;28;20119;-64
2023/03/11 08:06:19;;;;;;;3.10;1.35;;;11.30;99.00;;;;;;5111884;28;20071;-64
2023/03/11 08:08:47;;;;;;;6.53;2.17;;;11.70;96.80;;;;;;5113355;28;20112;-64
2023/03/11 08:11:16;;;;;;;6.88;1.25;;;11.50;97.30;;;;;;5113165;28;20040;-63
2023/03/11 08:13:44;;;;;;;2.83;1.27;;;11.60;93.40;;;;;;5112929;28;20116;-63
2023/03/11 08:16:14;;;;;;;14.82;2.15;;;12.40;97.30;;;;;;5111050;28;20059;-63
2023/03/11 08:18:41;;;;;;;3.50;1.42;;;12.10;95.10;;;;;;5113198;28;20457;-63
2023/03/11 08:21:10;;;;;;;3.70;1.42;;;11.40;93.70;;;;;;5111079;28;20044;-64
2023/03/11 08:23:37;;;;;;;7.38;1.85;;;12.00;95.40;;;;;;5111630;28;20043;-64
2023/03/11 08:26:04;;;;;;;8.13;1.58;;;11.80;95.40;;;;;;5112806;28;20097;-63
2023/03/11 08:28:33;;;;;;;3.63;1.40;;;12.20;94.90;;;;;;5111503;28;20059;-64
2023/03/11 08:31:00;;;;;;;4.45;1.67;;;12.70;93.00;;;;;;5112701;28;20483;-64
2023/03/11 08:33:27;;;;;;;5.63;1.67;;;11.90;94.10;;;;;;5110848;28;20051;-65
2023/03/11 08:35:54;;;;;;;2.97;1.30;;;12.30;93.20;;;;;;5110692;28;20118;-64
2023/03/11 08:38:21;;;;;;;3.72;1.40;;;13.10;94.00;;;;;;5111095;28;20113;-64
2023/03/11 08:40:48;;;;;;;4.53;1.42;;;13.50;93.30;;;;;;5112522;28;20105;-64
2023/03/11 08:43:15;;;;;;;3.95;1.50;;;13.40;91.40;;;;;;5111960;28;20051;-63
2023/03/11 08:45:44;;;;;;;4.05;1.33;;;13.40;90.80;;;;;;5112534;28;20047;-64
2023/03/11 08:48:11;;;;;;;6.80;2.38;;;13.50;90.90;;;;;;5111568;28;20048;-64
2023/03/11 08:50:40;;;;;;;3.47;1.10;;;13.20;91.80;;;;;;5111262;28;20066;-64
2023/03/11 08:53:07;;;;;;;5.75;1.83;;;13.20;90.70;;;;;;5112619;28;20043;-65
2023/03/11 08:55:35;;;;;;;4.72;1.65;;;13.50;91.50;;;;;;5112257;28;20711;-64
2023/03/11 08:58:02;;;;;;;4.45;1.60;;;13.40;91.80;;;;;;5112893;28;20043;-64
2023/03/11 09:00:29;;;;;;;2.58;1.33;;;13.80;91.00;;;;;;5112558;28;20051;-64
2023/03/11 09:02:57;;;;;;;3.25;1.50;;;13.40;88.00;;;;;;5110325;28;20052;-64
2023/03/11 09:05:24;;;;;;;4.68;1.50;;;13.60;90.50;;;;;;5110818;28;20063;-64
2023/03/11 09:07:51;;;;;;;3.92;1.52;;;13.80;91.00;;;;;;5112497;28;20051;-64
2023/03/11 09:10:18;;;;;;;3.15;1.25;;;13.80;90.10;;;;;;5110007;28;20056;-64
2023/03/11 09:12:45;;;;;;;3.67;1.33;;;14.30;90.60;;;;;;5110547;28;20043;-64
2023/03/11 09:15:12;;;;;;;5.05;1.83;;;14.80;89.50;;;;;;5110011;28;20062;-64
2023/03/11 09:17:39;;;;;;;4.88;1.90;;;15.20;85.70;;;;;;5110670;28;20059;-65
2023/03/11 09:20:09;;;;;;;3.80;1.65;;;15.30;85.50;;;;;;5110349;28;20096;-65
2023/03/11 09:22:36;;;;;;;4.07;1.20;;;15.30;87.40;;;;;;5111732;28;20048;-64
2023/03/11 09:25:03;;;;;;;4.45;1.75;;;15.00;85.40;;;;;;5110795;28;20499;-64
2023/03/11 09:27:29;;;;;;;2.83;1.42;;;15.10;85.80;;;;;;5110710;28;20059;-65
2023/03/11 09:29:56;;;;;;;4.65;1.20;;;15.10;87.50;;;;;;5111152;28;20483;-65
2023/03/11 09:32:23;;;;;;;4.60;1.63;;;14.80;88.40;;;;;;5110723;28;20471;-64
2023/03/11 09:34:50;;;;;;;4.03;1.50;;;14.10;87.10;;;;;;5111720;28;20048;-64
2023/03/11 09:37:18;;;;;;;7.60;2.13;;;14.20;87.90;;;;;;5109939;28;20052;-64
2023/03/11 09:39:45;;;;;;;4.63;1.88;;;14.30;85.50;;;;;;5111464;28;20046;-64
2023/03/11 09:42:20;;;;;;;7.90;1.77;;;14.60;88.30;;;;;;5110485;28;20487;-64
2023/03/11 09:44:58;;;;;;;6.32;1.55;;;14.60;82.70;;;;;;5108561;28;20051;-64
2023/03/11 09:47:36;;;;;;;6.35;1.60;;;14.70;83.50;;;;;;5110733;28;20043;-64
2023/03/11 09:50:15;;;;;;;14.57;2.45;;;15.00;85.40;;;;;;5110536;28;20135;-64
2023/03/11 09:52:51;;;;;;;5.32;1.55;;;15.20;84.50;;;;;;5110841;28;20058;-64
2023/03/11 09:55:31;;;;;;;3.60;1.50;;;15.30;85.70;;;;;;5111619;28;20147;-64
2023/03/11 09:58:01;;;;;;;7.15;1.75;;;15.00;82.90;;;;;;5110459;28;20044;-65
2023/03/11 10:00:28;;;;;;;3.75;1.60;;;14.90;87.10;;;;;;5114342;28;20040;-65
2023/03/11 10:02:56;;;;;;;5.30;1.77;;;15.80;86.90;;;;;;5116639;28;20452;-66
2023/03/11 10:05:26;;;;;;;3.28;1.38;;;16.10;84.50;;;;;;5112145;28;20067;-65
2023/03/11 10:08:00;;;;;;;4.40;1.77;;;16.30;82.80;;;;;;5116415;28;20059;-65
2023/03/11 10:10:33;;;;;;;6.75;2.45;;;17.40;79.60;;;;;;5115455;28;21300;-66
2023/03/11 10:13:09;;;;;;;4.88;1.48;;;15.90;78.60;;;;;;5115882;28;20067;-66
2023/03/11 10:15:47;;;;;;;4.00;1.42;;;16.60;79.80;;;;;;5116302;28;20491;-66
2023/03/11 10:18:55;;;;;;;5.30;1.50;;;17.00;79.90;;;;;;5116332;28;20043;-66
2023/03/11 10:21:35;;;;;;;6.22;1.52;;;16.30;77.90;;;;;;5099849;28;20051;-66
2023/03/11 10:24:17;;;;;;;6.32;2.00;;;15.60;77.90;;;;;;5115426;28;20051;-65
2023/03/11 10:26:47;;;;;;;2.42;1.33;;;16.30;79.90;;;;;;5115051;28;20051;-64
2023/03/11 10:29:20;;;;;;;6.57;1.70;;;16.30;78.50;;;;;;5115242;28;20376;-65
2023/03/11 10:31:54;;;;;;;7.50;1.70;;;15.30;79.60;;;;;;5115146;28;20112;-65
2023/03/11 10:34:26;;;;;;;5.63;1.67;;;15.60;80.10;;;;;;5113638;28;20051;-64
2023/03/11 10:37:00;;;;;;;3.97;1.67;;;15.30;80.00;;;;;;5114601;28;20079;-64
2023/03/11 10:39:30;;;;;;;7.45;2.15;;;15.90;80.10;;;;;;5116189;28;20075;-65
2023/03/11 10:42:00;;;;;;;2.97;1.40;;;15.20;80.40;;;;;;5115199;28;20039;-64
2023/03/11 10:44:32;;;;;;;5.00;1.30;;;15.50;81.00;;;;;;5108920;28;20051;-65
2023/03/11 10:46:59;;;;;;;4.15;1.27;;;15.50;80.30;;;;;;5113612;28;20039;-64
2023/03/11 10:49:26;;;;;;;5.35;1.50;;;15.60;79.80;;;;;;5114565;28;20453;-65
2023/03/11 10:51:54;;;;;;;5.03;1.73;;;15.40;81.70;;;;;;5114248;28;20043;-64
2023/03/11 10:54:29;;;;;;;4.60;1.80;;;15.70;80.50;;;;;;5114040;28;20073;-64
2023/03/11 10:56:58;;;;;;;2.63;1.40;;;16.20;77.90;;;;;;5114321;28;20053;-64
2023/03/11 10:59:28;;;;;;;4.65;1.20;;;15.60;79.80;;;;;;5113642;28;20105;-64
2023/03/11 11:01:57;;;;;;;4.70;1.10;;;16.40;79.80;;;;;;5114116;28;20526;-64
2023/03/11 11:04:31;;;;;;;3.72;1.33;;;15.20;79.00;;;;;;5113162;28;20082;-66
2023/03/11 11:06:59;;;;;;;5.75;1.52;;;15.80;81.00;;;;;;5113112;28;20507;-65
2023/03/11 11:09:29;;;;;;;3.53;1.48;;;15.30;81.20;;;;;;5111810;28;20043;-65
2023/03/11 11:12:05;;;;;;;5.35;1.77;;;15.40;80.00;;;;;;5114389;28;20613;-65
2023/03/11 11:14:48;;;;;;;5.63;1.50;;;14.50;80.40;;;;;;5114232;28;20136;-65
2023/03/11 11:17:22;;;;;;;4.88;1.50;;;14.90;81.80;;;;;;5112580;28;20155;-65
2023/03/11 11:19:51;;;;;;;4.85;1.55;;;15.30;80.70;;;;;;5112847;28;20545;-65
2023/03/11 11:22:19;;;;;;;4.47;1.27;;;15.40;81.00;;;;;;5114227;28;20035;-65
2023/03/11 11:24:51;;;;;;;4.00;1.40;;;14.80;78.70;;;;;;5112560;28;20058;-65
2023/03/11 11:27:19;;;;;;;3.75;1.60;;;14.40;80.50;;;;;;5112629;28;20139;-65
2023/03/11 11:29:48;;;;;;;3.75;1.70;;;15.70;81.70;;;;;;5113561;28;20506;-66
2023/03/11 11:32:23;;;;;;;2.97;1.60;;;15.50;80.90;;;;;;5112249;28;20475;-65
2023/03/11 11:34:58;;;;;;;8.50;1.60;;;15.50;82.20;;;;;;5112261;28;20415;-65
2023/03/11 11:37:30;;;;;;;5.15;1.55;;;16.10;80.20;;;;;;5111751;28;20399;-65
2023/03/11 11:40:08;;;;;;;4.93;1.50;;;15.90;80.20;;;;;;5114126;28;20134;-65
2023/03/11 11:42:37;;;;;;;3.63;1.38;;;15.20;80.30;;;;;;5114102;28;20042;-64
2023/03/11 11:45:11;;;;;;;3.90;1.35;;;15.70;79.80;;;;;;5110620;28;20070;-65
2023/03/11 11:47:44;;;;;;;5.50;1.40;;;15.60;79.80;;;;;;5112900;28;20051;-64
2023/03/11 11:50:17;;;;;;;3.60;1.65;;;16.80;79.40;;;;;;5112685;28;20052;-65
2023/03/11 11:52:49;;;;;;;3.67;1.35;;;16.60;77.70;;;;;;5111343;28;20055;-65
2023/03/11 11:55:21;;;;;;;2.47;1.30;;;16.40;78.00;;;;;;5111828;28;20040;-64
2023/03/11 11:57:48;;;;;;;2.83;1.30;;;16.30;79.70;;;;;;5111833;28;20052;-64
2023/03/11 12:00:20;;;;;;;3.47;1.30;;;17.10;78.20;;;;;;5112007;28;20055;-65
2023/03/11 12:03:06;;;;;;;4.57;1.17;;;16.60;76.90;;;;;;5112706;28;20464;-64
2023/03/11 12:05:40;;;;;;;6.45;1.80;;;16.40;76.60;;;;;;5112698;28;20048;-64
2023/03/11 12:08:14;;;;;;;3.58;1.27;;;16.60;79.80;;;;;;5113595;28;20047;-64
2023/03/11 12:10:48;;;;;;;4.18;1.38;;;16.80;76.30;;;;;;5113544;28;20502;-65
2023/03/11 12:13:40;;;;;;;2.80;1.20;;;16.40;77.80;;;;;;5110671;28;20055;-64
2023/03/11 12:16:17;;;;;;;4.88;1.15;;;16.50;78.30;;;;;;5112320;28;20473;-64
2023/03/11 12:18:49;;;;;;;3.67;1.02;;;15.90;75.60;;;;;;5111982;28;20047;-64
2023/03/11 12:21:27;;;;;;;6.95;1.27;;;15.90;76.10;;;;;;5108740;28;20055;-64
2023/03/11 12:24:11;;;;;;;3.15;0.80;;;15.70;75.60;;;;;;5110845;28;20051;-64
2023/03/11 12:26:45;;;;;;;3.55;1.40;;;15.80;75.70;;;;;;5112309;28;20479;-64
2023/03/11 12:29:20;;;;;;;2.92;1.05;;;15.70;77.10;;;;;;5113168;28;20055;-64
2023/03/11 12:31:48;;;;;;;3.42;1.00;;;15.20;76.40;;;;;;5110897;28;20104;-64
2023/03/11 12:34:19;;;;;;;3.30;1.10;;;15.60;75.80;;;;;;5112694;28;20100;-65
2023/03/11 12:36:48;;;;;;;4.20;1.15;;;14.80;75.50;;;;;;5113097;28;20487;-64
2023/03/11 12:39:23;;;;;;;4.40;1.30;;;14.30;76.40;;;;;;5113082;28;20043;-65
2023/03/11 12:42:15;;;;;;;3.90;1.50;;;14.60;79.60;;;;;;5106943;28;20047;-64
2023/03/11 12:44:42;;;;;;;4.43;0.88;;;14.70;77.20;;;;;;5107986;28;20536;-64
2023/03/11 12:47:30;;;;;;;3.00;1.15;;;14.80;78.90;;;;;;5109269;28;20044;-65
2023/03/11 12:50:31;;;;;;;3.47;1.05;;;13.90;79.70;;;;;;5110497;28;20549;-65
2023/03/11 12:52:57;;;;;;;;;;;13.80;82.10;;;;;;5108717;28;20063;-65
2023/03/11 12:55:31;;;;;;;5.57;1.38;;;13.70;80.80;;;;;;5109878;28;19984;-65
2023/03/11 12:58:35;;;;;;;1.80;0.80;;;14.50;79.10;;;;;;5109132;28;20043;-65
2023/03/11 13:01:53;;;;;;;2.88;1.08;;;15.00;77.80;;;;;;5108538;28;20050;-64